Time;durP1;ratioP1;P1;durP2;ratioP2;P2;SDS_P1;SDS_P2;PMS_P1;PMS_P2;Temp;Humidity;BMP_temperature;BMP_pressure;BME280_temperature;BME280_humidity;BME280_pressure;Samples;Min_cycle;Max_cycle;Signal;HPM_P1;HPM_P2
2024/04/07 00:01:18;;;;;;;;;;;;;;;14.13;66.92;96343.63;5065317;28;19932;-72
2024/04/07 00:03:44;;;;;;;;;;;;;;;14.12;68.53;96339.41;5064738;28;19936;-72
2024/04/07 00:06:10;;;;;;;;;;;;;;;14.09;67.54;96339.06;5065222;28;19944;-73
2024/04/07 00:08:36;;;;;;;;;;;;;;;14.06;68.96;96344.84;5064579;28;19944;-72
2024/04/07 00:11:04;;;;;;;;;;;;;;;14.03;69.29;96343.50;5064531;28;19932;-72
2024/04/07 00:13:30;;;;;;;;;;;;;;;14.00;69.26;96339.47;5064490;28;19967;-72
2024/04/07 00:15:57;;;;;;;;;;;;;;;13.98;69.11;96331.03;5063974;28;20275;-68
2024/04/07 00:18:23;;;;;;;;;;;;;;;13.96;70.06;96333.13;5064501;28;19941;-72
2024/04/07 00:20:59;;;;;;;;;;;;;;;13.94;68.71;96329.94;5064432;28;19938;-72
2024/04/07 00:23:25;;;;;;;;;;;;;;;13.90;68.18;96323.53;5064248;28;20124;-73
2024/04/07 00:25:51;;;;;;;;;;;;;;;13.88;69.20;96332.69;5065149;28;20113;-72
2024/04/07 00:28:17;;;;;;;;;;;;;;;13.87;67.08;96331.13;5064583;28;19944;-72
2024/04/07 00:30:44;;;;;;;;;;;;;;;13.87;68.62;96336.41;5063816;28;19940;-72
2024/04/07 00:33:10;;;;;;;;;;;;;;;13.87;69.90;96331.13;5064216;28;20123;-72
2024/04/07 00:35:36;;;;;;;;;;;;;;;13.86;69.79;96329.50;5064123;28;20244;-84
2024/04/07 00:38:02;;;;;;;;;;;;;;;13.83;70.60;96314.19;5046497;28;19937;-73
2024/04/07 00:40:27;;;;;;;;;;;;;;;13.82;69.97;96316.03;5064137;28;19943;-73
2024/04/07 00:42:54;;;;;;;;;;;;;;;13.80;68.85;96311.00;5064621;28;19934;-73
2024/04/07 00:45:20;;;;;;;;;;;;;;;13.80;70.94;96323.38;5064315;28;19933;-73
2024/04/07 00:47:46;;;;;;;;;;;;;;;13.79;70.12;96321.78;5064014;28;19932;-73
2024/04/07 00:50:13;;;;;;;;;;;;;;;13.78;70.24;96320.97;5064727;28;19933;-74
2024/04/07 00:52:40;;;;;;;;;;;;;;;13.78;69.26;96315.72;5064469;28;20296;-73
2024/04/07 00:55:08;;;;;;;;;;;;;;;13.78;69.56;96318.34;5063829;28;20273;-69
2024/04/07 00:57:34;;;;;;;;;;;;;;;13.75;69.18;96312.75;5063878;28;20131;-69
2024/04/07 01:00:00;;;;;;;;;;;;;;;13.72;67.72;96310.63;5062668;28;19926;-70
2024/04/07 01:02:26;;;;;;;;;;;;;;;13.70;71.24;96316.13;5064640;28;20072;-69
2024/04/07 01:04:52;;;;;;;;;;;;;;;13.69;71.16;96318.97;5063819;28;19933;-70
2024/04/07 01:07:19;;;;;;;;;;;;;;;13.68;68.44;96314.78;5064510;28;20008;-69
2024/04/07 01:09:45;;;;;;;;;;;;;;;13.67;70.59;96311.34;5063826;28;19946;-69
2024/04/07 01:12:14;;;;;;;;;;;;;;;13.68;70.81;96322.66;5063779;28;19936;-73
2024/04/07 01:14:40;;;;;;;;;;;;;;;13.68;68.43;96312.13;5063743;28;19950;-69
2024/04/07 01:17:06;;;;;;;;;;;;;;;13.67;71.27;96324.50;5064508;28;19971;-69
2024/04/07 01:19:32;;;;;;;;;;;;;;;13.66;70.28;96328.16;5063952;28;19934;-70
2024/04/07 01:21:58;;;;;;;;;;;;;;;13.65;70.89;96326.59;5063650;28;19941;-69
2024/04/07 01:24:24;;;;;;;;;;;;;;;13.64;68.36;96324.19;5063854;28;19970;-69
2024/04/07 01:26:50;;;;;;;;;;;;;;;13.61;71.35;96320.19;5063524;28;19946;-69
2024/04/07 01:29:16;;;;;;;;;;;;;;;13.58;72.48;96337.25;5063536;28;20227;-72
2024/04/07 01:31:42;;;;;;;;;;;;;;;13.56;68.75;96328.81;5064432;28;20212;-68
2024/04/07 01:34:08;;;;;;;;;;;;;;;13.55;71.17;96339.59;5064254;28;20018;-69
2024/04/07 01:36:34;;;;;;;;;;;;;;;13.51;72.96;96344.53;5063549;28;19932;-69
2024/04/07 01:39:00;;;;;;;;;;;;;;;13.50;72.17;96337.69;5063487;28;20223;-69
2024/04/07 01:41:26;;;;;;;;;;;;;;;13.48;71.17;96338.94;5064288;28;19985;-69
2024/04/07 01:43:51;;;;;;;;;;;;;;;13.47;72.57;96340.78;5066450;28;19930;-69
2024/04/07 01:46:17;;;;;;;;;;;;;;;13.50;68.86;96326.34;5067557;28;19932;-69
2024/04/07 01:48:43;;;;;;;;;;;;;;;13.55;70.82;96334.34;5067317;28;19978;-71
2024/04/07 01:51:09;;;;;;;;;;;;;;;13.56;72.03;96336.72;5050335;28;19933;-69
2024/04/07 01:53:35;;;;;;;;;;;;;;;13.56;72.07;96330.66;5067726;28;19933;-69
2024/04/07 01:56:01;;;;;;;;;;;;;;;13.56;71.44;96326.16;5067783;28;20006;-69
2024/04/07 01:58:27;;;;;;;;;;;;;;;13.56;69.57;96320.09;5067889;28;19936;-69
2024/04/07 02:00:54;;;;;;;;;;;;;;;13.59;68.79;96322.28;5067845;28;19933;-70
2024/04/07 02:03:20;;;;;;;;;;;;;;;13.62;71.11;96323.63;5067284;28;20123;-69
2024/04/07 02:05:46;;;;;;;;;;;;;;;13.61;70.11;96322.84;5066985;28;19943;-69
2024/04/07 02:08:12;;;;;;;;;;;;;;;13.62;72.57;96332.31;5067335;28;20010;-71
2024/04/07 02:10:37;;;;;;;;;;;;;;;13.60;71.53;96322.00;5067135;28;19940;-69
2024/04/07 02:13:04;;;;;;;;;;;;;;;13.62;70.79;96319.16;5067317;28;19930;-69
2024/04/07 02:15:30;;;;;;;;;;;;;;;13.64;70.63;96324.97;5067467;28;19961;-69
2024/04/07 02:17:55;;;;;;;;;;;;;;;13.68;69.71;96320.81;5066666;28;19967;-70
2024/04/07 02:20:22;;;;;;;;;;;;;;;13.71;69.80;96325.63;5067432;28;20104;-69
2024/04/07 02:22:48;;;;;;;;;;;;;;;13.73;69.31;96320.91;5067429;28;19940;-69
2024/04/07 02:25:14;;;;;;;;;;;;;;;13.75;70.82;96321.47;5066450;28;19974;-84
2024/04/07 02:27:40;;;;;;;;;;;;;;;13.78;69.46;96322.84;5066574;28;19974;-72
2024/04/07 02:30:08;;;;;;;;;;;;;;;13.79;70.46;96316.50;5067032;28;20232;-72
2024/04/07 02:32:34;;;;;;;;;;;;;;;13.82;69.03;96310.78;5066471;28;19959;-73
2024/04/07 02:35:00;;;;;;;;;;;;;;;13.86;69.06;96311.06;5066310;28;20241;-73
2024/04/07 02:37:26;;;;;;;;;;;;;;;13.89;69.29;96310.59;5067151;28;19939;-72
2024/04/07 02:39:52;;;;;;;;;;;;;;;13.89;69.62;96323.78;5066340;28;19953;-72
2024/04/07 02:42:18;;;;;;;;;;;;;;;13.93;69.56;96322.25;5048588;28;20185;-67
2024/04/07 02:50:14;;;;;;;;;;;;;;;14.01;69.41;96321.84;5066629;28;20178;-68
2024/04/07 02:52:39;;;;;;;;;;;;;;;14.00;71.87;96328.94;5066093;28;19937;-67
2024/04/07 02:55:05;;;;;;;;;;;;;;;14.00;69.24;96328.94;5065531;28;19952;-67
2024/04/07 02:57:31;;;;;;;;;;;;;;;14.02;69.13;96332.13;5065969;28;19943;-67
2024/04/07 02:59:57;;;;;;;;;;;;;;;14.01;69.83;96312.09;5065898;28;20002;-67
2024/04/07 03:02:23;;;;;;;;;;;;;;;13.99;70.87;96323.94;5066178;28;20131;-69
2024/04/07 03:04:49;;;;;;;;;;;;;;;13.98;69.69;96325.78;5065862;28;19937;-82
2024/04/07 03:07:15;;;;;;;;;;;;;;;14.00;69.54;96328.13;5064582;28;20001;-83
2024/04/07 03:09:41;;;;;;;;;;;;;;;14.01;70.91;96329.75;5065735;28;19940;-83
2024/04/07 03:12:06;;;;;;;;;;;;;;;13.98;72.65;96341.59;5065699;28;19938;-82
2024/04/07 03:14:32;;;;;;;;;;;;;;;13.95;70.88;96338.63;5065667;28;20216;-82
2024/04/07 03:16:58;;;;;;;;;;;;;;;13.91;71.23;96343.56;5066184;28;19944;-83
2024/04/07 03:19:24;;;;;;;;;;;;;;;13.89;73.01;96345.66;5065598;28;19928;-73
2024/04/07 03:21:50;;;;;;;;;;;;;;;13.85;73.22;96354.28;5065445;28;19943;-68
2024/04/07 03:24:16;;;;;;;;;;;;;;;13.79;73.07;96351.56;5065698;28;20264;-84
2024/04/07 03:26:41;;;;;;;;;;;;;;;13.76;75.59;96359.97;5065432;28;19985;-83
2024/04/07 03:29:07;;;;;;;;;;;;;;;13.75;76.54;96357.56;5065904;28;19936;-83
2024/04/07 03:31:33;;;;;;;;;;;;;;;13.72;76.20;96368.59;5065641;28;20131;-83
2024/04/07 03:33:59;;;;;;;;;;;;;;;13.70;75.09;96366.19;5065338;28;19935;-83
2024/04/07 03:36:26;;;;;;;;;;;;;;;13.69;77.23;96375.16;5065311;28;20073;-83
2024/04/07 03:38:52;;;;;;;;;;;;;;;13.66;75.57;96372.97;5066061;28;19935;-71
2024/04/07 03:41:18;;;;;;;;;;;;;;;13.66;77.65;96388.00;5065149;28;19940;-73
2024/04/07 03:43:44;;;;;;;;;;;;;;;13.64;77.18;96385.59;5065108;28;20100;-73
2024/04/07 03:46:10;;;;;;;;;;;;;;;13.61;75.95;96380.81;5065568;28;20016;-73
2024/04/07 03:48:36;;;;;;;;;;;;;;;13.60;77.43;96385.25;5065053;28;19944;-73
2024/04/07 03:51:05;;;;;;;;;;;;;;;13.59;77.97;96394.22;5065005;28;20126;-73
2024/04/07 03:53:30;;;;;;;;;;;;;;;13.58;77.48;96402.34;5064907;28;19936;-73
2024/04/07 03:55:56;;;;;;;;;;;;;;;13.56;73.75;96388.59;5065348;28;19955;-69
2024/04/07 03:58:22;;;;;;;;;;;;;;;13.57;77.95;96406.81;5065570;28;20265;-80
2024/04/07 04:00:48;;;;;;;;;;;;;;;13.54;76.51;96415.22;5065058;28;19983;-68
2024/04/07 04:03:14;;;;;;;;;;;;;;;13.51;78.93;96420.16;5064728;28;20527;-68
2024/04/07 04:05:40;;;;;;;;;;;;;;;13.46;78.63;96420.88;5064758;28;20204;-69
2024/04/07 04:08:06;;;;;;;;;;;;;;;13.43;78.83;96425.78;5064588;28;20218;-69
2024/04/07 04:10:31;;;;;;;;;;;;;;;13.40;79.28;96430.50;5064572;28;20131;-68
2024/04/07 04:12:57;;;;;;;;;;;;;;;13.38;79.06;96432.56;5064574;28;19932;-69
2024/04/07 04:15:23;;;;;;;;;;;;;;;13.38;78.84;96437.06;5064504;28;19953;-69
2024/04/07 04:17:49;;;;;;;;;;;;;;;13.38;80.14;96440.47;5064689;28;20112;-74
2024/04/07 04:20:15;;;;;;;;;;;;;;;13.38;79.42;96440.47;5064428;28;19937;-74
2024/04/07 04:22:44;;;;;;;;;;;;;;;13.40;78.45;96456.06;5064934;28;19939;-73
2024/04/07 04:25:10;;;;;;;;;;;;;;;13.40;79.24;96448.16;5064151;28;20157;-74
2024/04/07 04:27:36;;;;;;;;;;;;;;;13.38;78.66;96450.22;5064351;28;20011;-74
2024/04/07 04:30:05;;;;;;;;;;;;;;;13.37;79.35;96457.28;5064801;28;19937;-74
2024/04/07 04:32:32;;;;;;;;;;;;;;;13.36;76.54;96444.38;5046509;28;19941;-68
2024/04/07 04:34:58;;;;;;;;;;;;;;;13.34;77.45;96452.50;5064174;28;20243;-84
2024/04/07 04:37:24;;;;;;;;;;;;;;;13.35;79.44;96450.66;5064699;28;19945;-68
2024/04/07 04:39:50;;;;;;;;;;;;;;;13.31;79.79;96460.91;5064945;28;20116;-69
2024/04/07 04:42:16;;;;;;;;;;;;;;;13.29;75.31;96447.16;5064616;28;20006;-69
2024/04/07 04:44:42;;;;;;;;;;;;;;;13.29;77.29;96455.06;5064587;28;19926;-69
2024/04/07 04:47:08;;;;;;;;;;;;;;;13.27;79.75;96457.09;5064275;28;19946;-69
2024/04/07 04:49:34;;;;;;;;;;;;;;;13.27;81.50;96474.72;5064515;28;20118;-68
2024/04/07 04:52:00;;;;;;;;;;;;;;;13.24;75.11;96454.13;5063986;28;19929;-70
2024/04/07 04:54:26;;;;;;;;;;;;;;;13.24;78.54;96459.41;5063898;28;19937;-73
2024/04/07 04:56:52;;;;;;;;;;;;;;;13.24;81.01;96488.38;5062713;28;19946;-73
2024/04/07 04:59:17;;;;;;;;;;;;;;;13.22;77.07;96478.06;5063838;28;20009;-73
2024/04/07 05:01:43;;;;;;;;;;;;;;;13.23;80.23;96484.13;5063483;28;19938;-73
2024/04/07 05:04:09;;;;;;;;;;;;;;;13.22;80.08;96499.13;5063800;28;20217;-73
2024/04/07 05:06:35;;;;;;;;;;;;;;;13.22;76.41;96490.44;5063812;28;19938;-73
2024/04/07 05:09:02;;;;;;;;;;;;;;;13.22;77.38;96485.97;5063838;28;20009;-74
2024/04/07 05:11:27;;;;;;;;;;;;;;;13.23;80.40;96494.66;5063806;28;19940;-67
2024/04/07 05:13:53;;;;;;;;;;;;;;;13.23;80.24;96492.84;5064042;28;19930;-73
2024/04/07 05:16:19;;;;;;;;;;;;;;;13.23;74.77;96484.13;5064183;28;19944;-73
2024/04/07 05:18:45;;;;;;;;;;;;;;;13.25;76.56;96505.75;5067833;28;20235;-73
2024/04/07 05:21:11;;;;;;;;;;;;;;;13.27;77.13;96522.13;5067836;28;20230;-73
2024/04/07 05:23:40;;;;;;;;;;;;;;;13.29;75.76;96520.91;5067408;28;20167;-74
2024/04/07 05:26:09;;;;;;;;;;;;;;;13.30;79.65;96535.66;5068281;28;19942;-74
2024/04/07 05:28:34;;;;;;;;;;;;;;;13.32;79.94;96522.28;5067725;28;20118;-73
2024/04/07 05:31:03;;;;;;;;;;;;;;;13.31;81.08;96525.91;5067763;28;19939;-69
2024/04/07 05:33:30;;;;;;;;;;;;;;;13.35;73.40;96500.72;5033278;28;19941;-70
2024/04/07 05:35:55;;;;;;;;;;;;;;;13.45;72.00;96502.75;5033960;28;19952;-71
2024/04/07 05:38:21;;;;;;;;;;;;;;;13.54;71.26;96507.44;5049624;28;19930;-70
2024/04/07 05:40:54;;;;;;;;;;;;;;;13.58;71.36;96511.16;5067445;28;19931;-71
2024/04/07 05:43:20;;;;;;;;;;;;;;;13.64;73.82;96516.56;5067377;28;19931;-71
2024/04/07 05:45:46;;;;;;;;;;;;;;;13.65;71.23;96515.50;5067335;28;19940;-71
2024/04/07 05:48:12;;;;;;;;;;;;;;;13.66;75.67;96536.34;5049629;28;19939;-73
2024/04/07 05:50:37;;;;;;;;;;;;;;;13.69;72.51;96529.81;5049583;28;20241;-69
2024/04/07 05:53:03;;;;;;;;;;;;;;;13.73;71.23;96515.13;5068041;28;19931;-69
2024/04/07 05:55:32;;;;;;;;;;;;;;;13.76;73.35;96539.19;5067128;28;19949;-69
2024/04/07 05:57:58;;;;;;;;;;;;;;;13.79;72.64;96549.25;5067054;28;19943;-69
2024/04/07 06:00:24;;;;;;;;;;;;;;;13.84;76.91;96553.84;5067848;28;19929;-69
2024/04/07 06:02:50;;;;;;;;;;;;;;;13.86;79.12;96570.22;5067052;28;19928;-68
2024/04/07 06:05:16;;;;;;;;;;;;;;;13.91;78.66;96574.78;5066999;28;19993;-67
2024/04/07 06:07:41;;;;;;;;;;;;;;;13.95;75.55;96563.50;5067009;28;20213;-69
2024/04/07 06:10:07;;;;;;;;;;;;;;;13.98;75.96;96560.44;5067604;28;19946;-67
2024/04/07 06:12:33;;;;;;;;;;;;;;;14.04;74.17;96556.03;5066859;28;19935;-67
2024/04/07 06:14:59;;;;;;;;;;;;;;;14.10;75.56;96567.47;5067245;28;19935;-68
2024/04/07 06:17:25;;;;;;;;;;;;;;;14.15;74.32;96570.19;5066792;28;19943;-67
2024/04/07 06:19:51;;;;;;;;;;;;;;;14.19;76.67;96572.13;5066738;28;19935;-67
2024/04/07 06:22:16;;;;;;;;;;;;;;;14.23;75.39;96580.34;5067428;28;19931;-69
2024/04/07 06:24:43;;;;;;;;;;;;;;;14.26;79.93;96590.44;5066676;28;19997;-71
2024/04/07 06:27:09;;;;;;;;;;;;;;;14.26;74.66;96561.44;5066576;28;19935;-69
2024/04/07 06:29:35;;;;;;;;;;;;;;;14.27;78.64;96573.56;5065967;28;19943;-67
2024/04/07 06:32:01;;;;;;;;;;;;;;;14.29;76.09;96576.75;5066442;28;19949;-67
2024/04/07 06:34:27;;;;;;;;;;;;;;;14.35;73.66;96561.84;5067306;28;20236;-67
2024/04/07 06:36:53;;;;;;;;;;;;;;;14.41;71.04;96564.31;5066455;28;19955;-68
2024/04/07 06:39:18;;;;;;;;;;;;;;;14.50;69.21;96569.19;5067136;28;19940;-68
2024/04/07 06:41:44;;;;;;;;;;;;;;;14.61;71.27;96573.63;5066331;28;19933;-74
2024/04/07 06:44:10;;;;;;;;;;;;;;;14.73;76.48;96600.72;5049110;28;19934;-82
2024/04/07 06:46:36;;;;;;;;;;;;;;;14.88;79.92;96608.09;5066707;28;20210;-69
2024/04/07 06:49:02;;;;;;;;;;;;;;;15.04;74.39;96593.28;5066143;28;19942;-69
2024/04/07 06:51:31;;;;;;;;;;;;;;;15.19;73.03;96595.34;5065979;28;19938;-69
2024/04/07 06:53:57;;;;;;;;;;;;;;;15.34;77.17;96598.16;5066076;28;20223;-69
2024/04/07 06:56:23;;;;;;;;;;;;;;;15.50;71.97;96585.97;5065909;28;19968;-69
2024/04/07 06:58:49;;;;;;;;;;;;;;;15.64;70.87;96599.59;5066502;28;20273;-69
2024/04/07 07:01:15;;;;;;;;;;;;;;;15.77;74.46;96606.38;5066465;28;20240;-68
2024/04/07 07:03:42;;;;;;;;;;;;;;;15.90;69.18;96589.38;5065879;28;19941;-72
2024/04/07 07:06:11;;;;;;;;;;;;;;;15.98;67.78;96592.38;5066191;28;19943;-71
2024/04/07 07:08:37;;;;;;;;;;;;;;;16.06;67.20;96595.59;5048072;28;20253;-71
2024/04/07 07:11:03;;;;;;;;;;;;;;;16.09;68.19;96606.50;5032089;28;19980;-71
2024/04/07 07:13:30;;;;;;;;;;;;;;;16.11;66.25;96603.59;5048022;28;19937;-70
2024/04/07 07:15:56;;;;;;;;;;;;;;;16.15;66.21;96604.72;5065565;28;20000;-71
2024/04/07 07:18:22;;;;;;;;;;;;;;;16.20;69.27;96607.41;5048387;28;19955;-73
2024/04/07 07:20:48;;;;;;;;;;;;;;;16.26;63.53;96593.16;5065446;28;19984;-73
2024/04/07 07:23:15;;;;;;;;;;;;;;;16.34;66.55;96603.31;5065305;28;19937;-69
2024/04/07 07:25:42;;;;;;;;;;;;;;;16.42;67.08;96610.78;5066048;28;20117;-70
2024/04/07 07:28:07;;;;;;;;;;;;;;;16.50;67.22;96616.66;5065429;28;20126;-69
2024/04/07 07:30:35;;;;;;;;;;;;;;;16.60;71.01;96620.19;5066203;28;19933;-69
2024/04/07 07:33:01;;;;;;;;;;;;;;;16.74;65.99;96611.84;5065290;28;19949;-69
2024/04/07 07:35:27;;;;;;;;;;;;;;;16.99;60.99;96604.13;5065218;28;20121;-69
2024/04/07 07:37:53;;;;;;;;;;;;;;;17.35;63.38;96611.50;5065813;28;19946;-73
2024/04/07 07:40:19;;;;;;;;;;;;;;;17.87;60.56;96625.81;5064089;28;19933;-70
2024/04/07 07:42:45;;;;;;;;;;;;;;;18.30;56.95;96619.28;5065137;28;19945;-69
2024/04/07 07:45:11;;;;;;;;;;;;;;;18.50;55.56;96623.03;5065366;28;19937;-69
2024/04/07 07:47:36;;;;;;;;;;;;;;;18.52;54.67;96634.19;5065322;28;19939;-69
2024/04/07 07:50:03;;;;;;;;;;;;;;;18.48;55.34;96638.44;5065018;28;19945;-69
2024/04/07 07:52:28;;;;;;;;;;;;;;;18.38;52.95;96640.03;5064953;28;19939;-69
2024/04/07 07:54:54;;;;;;;;;;;;;;;18.35;53.32;96642.41;5065701;28;19943;-73
2024/04/07 07:57:20;;;;;;;;;;;;;;;18.49;55.26;96655.97;5064785;28;19963;-73
2024/04/07 07:59:46;;;;;;;;;;;;;;;18.62;54.37;96656.25;5065327;28;19958;-68
2024/04/07 08:02:12;;;;;;;;;;;;;;;18.66;54.08;96656.53;5064749;28;20120;-68
2024/04/07 08:04:38;;;;;;;;;;;;;;;18.71;53.79;96655.72;5065522;28;19943;-68
2024/04/07 08:07:03;;;;;;;;;;;;;;;18.77;54.35;96671.44;5065160;28;20003;-68
2024/04/07 08:09:29;;;;;;;;;;;;;;;18.86;52.79;96677.03;5064505;28;19960;-68
2024/04/07 08:11:56;;;;;;;;;;;;;;;18.99;53.10;96681.03;5064568;28;19935;-68
2024/04/07 08:14:22;;;;;;;;;;;;;;;19.00;51.17;96674.63;5063356;28;19956;-69
2024/04/07 08:16:48;;;;;;;;;;;;;;;18.97;49.48;96670.66;5064456;28;19953;-69
2024/04/07 08:19:15;;;;;;;;;;;;;;;18.95;52.84;96680.75;5065220;28;20029;-69
2024/04/07 08:21:42;;;;;;;;;;;;;;;19.00;57.13;96679.94;5065227;28;19928;-69
2024/04/07 08:24:08;;;;;;;;;;;;;;;19.10;54.07;96679.16;5064168;28;19964;-69
2024/04/07 08:26:34;;;;;;;;;;;;;;;19.15;52.49;96674.66;5064328;28;19948;-69
2024/04/07 08:28:59;;;;;;;;;;;;;;;19.23;54.36;96681.28;5047250;28;19940;-69
2024/04/07 08:31:25;;;;;;;;;;;;;;;19.29;55.58;96684.72;5064263;28;19966;-69
2024/04/07 08:33:51;;;;;;;;;;;;;;;19.36;56.37;96695.88;5064501;28;19937;-70
2024/04/07 08:36:17;;;;;;;;;;;;;;;19.40;53.66;96686.31;5064078;28;19956;-68
2024/04/07 08:38:43;;;;;;;;;;;;;;;19.43;53.34;96691.88;5064155;28;19935;-68
2024/04/07 08:41:09;;;;;;;;;;;;;;;19.43;49.04;96683.91;5064069;28;19936;-68
2024/04/07 08:43:38;;;;;;;;;;;;;;;19.41;50.78;96686.03;5064064;28;19930;-67
2024/04/07 08:46:08;;;;;;;;;;;;;;;19.50;49.22;96694.28;5064268;28;19946;-69
2024/04/07 08:48:34;;;;;;;;;;;;;;;19.73;51.61;96703.56;5064693;28;19989;-68
2024/04/07 08:51:01;;;;;;;;;;;;;;;19.94;51.65;96690.19;5064336;28;19939;-84
2024/04/07 08:53:27;;;;;;;;;;;;;;;20.10;49.82;96681.09;5064477;28;20211;-68
2024/04/07 08:55:53;;;;;;;;;;;;;;;20.26;48.58;96679.97;5063816;28;19956;-74
2024/04/07 08:58:19;;;;;;;;;;;;;;;20.50;49.08;96686.50;5064413;28;20185;-74
2024/04/07 09:00:47;;;;;;;;;;;;;;;20.87;48.65;96688.66;5064422;28;20094;-74
2024/04/07 09:03:14;;;;;;;;;;;;;;;21.17;45.88;96682.31;5063670;28;19938;-74
2024/04/07 09:05:39;;;;;;;;;;;;;;;21.34;46.77;96686.44;5063789;28;19942;-74
2024/04/07 09:08:05;;;;;;;;;;;;;;;21.40;42.42;96677.31;5063716;28;19938;-74
2024/04/07 09:10:31;;;;;;;;;;;;;;;21.41;44.07;96692.22;5063824;28;19931;-72
2024/04/07 09:12:58;;;;;;;;;;;;;;;21.47;46.32;96691.91;5064054;28;19988;-74
2024/04/07 09:15:24;;;;;;;;;;;;;;;21.60;46.57;96703.78;5063678;28;19938;-74
2024/04/07 09:17:49;;;;;;;;;;;;;;;21.80;46.82;96702.03;5063725;28;20136;-74
2024/04/07 09:20:19;;;;;;;;;;;;;;;21.98;45.88;96697.78;5063987;28;19939;-74
2024/04/07 09:22:47;;;;;;;;;;;;;;;22.01;45.38;96690.03;5063707;28;19941;-74
2024/04/07 09:25:13;;;;;;;;;;;;;;;21.96;46.55;96682.06;5063501;28;19967;-74
2024/04/07 09:27:40;;;;;;;;;;;;;;;21.89;44.91;96682.41;5064475;28;19985;-73
2024/04/07 09:30:06;;;;;;;;;;;;;;;21.81;45.62;96691.03;5063651;28;19934;-70
2024/04/07 09:32:32;;;;;;;;;;;;;;;21.73;45.97;96688.19;5063606;28;19991;-75
2024/04/07 09:34:58;;;;;;;;;;;;;;;21.71;46.33;96687.69;5064057;28;20201;-75
2024/04/07 09:37:24;;;;;;;;;;;;;;;21.63;47.17;96692.56;5029189;28;19958;-75
2024/04/07 09:39:50;;;;;;;;;;;;;;;21.61;46.78;96692.06;5063536;28;20124;-75
2024/04/07 09:42:20;;;;;;;;;;;;;;;21.73;46.50;96685.53;5063482;28;19945;-75
2024/04/07 09:44:46;;;;;;;;;;;;;;;21.87;44.45;96697.13;5063498;28;19941;-75
2024/04/07 09:47:19;;;;;;;;;;;;;;;22.00;46.45;96701.75;5063472;28;19936;-73
2024/04/07 09:49:45;;;;;;;;;;;;;;;22.26;46.05;96704.19;5063474;28;19951;-73
2024/04/07 09:52:14;;;;;;;;;;;;;;;22.56;43.50;96694.94;5063467;28;19943;-73
2024/04/07 09:54:48;;;;;;;;;;;;;;;22.87;44.11;96692.63;5063539;28;19953;-73
2024/04/07 09:57:16;;;;;;;;;;;;;;;23.10;44.02;96692.84;5046448;28;20255;-73
2024/04/07 09:59:43;;;;;;;;;;;;;;;23.31;42.50;96695.97;5063384;28;20129;-73
2024/04/07 10:02:13;;;;;;;;;;;;;;;23.58;40.80;96703.28;5062079;28;19975;-73
2024/04/07 10:04:39;;;;;;;;;;;;;;;23.71;38.53;96693.66;5065849;28;19978;-73
2024/04/07 10:07:06;;;;;;;;;;;;;;;23.82;36.81;96695.09;5067023;28;19935;-69
2024/04/07 10:09:32;;;;;;;;;;;;;;;24.00;41.64;96695.28;5066880;28;19960;-69
2024/04/07 10:11:58;;;;;;;;;;;;;;;24.16;40.84;96709.16;5050040;28;19934;-70
2024/04/07 10:14:24;;;;;;;;;;;;;;;24.35;41.95;96704.47;5066893;28;19957;-70
2024/04/07 10:16:54;;;;;;;;;;;;;;;24.36;35.32;96698.03;5067261;28;19942;-69
2024/04/07 10:19:26;;;;;;;;;;;;;;;24.14;36.30;96693.38;5066745;28;19943;-69
2024/04/07 10:21:52;;;;;;;;;;;;;;;24.03;36.01;96692.81;5066670;28;19937;-69
2024/04/07 10:24:18;;;;;;;;;;;;;;;23.95;38.53;96685.47;5066887;28;20309;-71
2024/04/07 10:26:53;;;;;;;;;;;;;;;23.85;36.33;96683.75;5067197;28;19938;-69
2024/04/07 10:29:19;;;;;;;;;;;;;;;23.89;39.88;96681.28;5067409;28;19944;-69
2024/04/07 10:31:46;;;;;;;;;;;;;;;24.09;39.20;96672.06;5067049;28;19937;-69
2024/04/07 10:34:13;;;;;;;;;;;;;;;24.25;39.33;96673.34;5066019;28;19946;-69
2024/04/07 10:36:40;;;;;;;;;;;;;;;24.35;35.80;96666.16;5066708;28;19943;-69
2024/04/07 10:39:10;;;;;;;;;;;;;;;24.24;36.47;96661.03;5067131;28;19940;-69
2024/04/07 10:41:36;;;;;;;;;;;;;;;24.23;36.85;96672.03;5067096;28;19942;-72
2024/04/07 10:44:03;;;;;;;;;;;;;;;24.35;38.30;96666.16;5032175;28;19943;-73
2024/04/07 10:46:30;;;;;;;;;;;;;;;24.36;37.27;96668.56;5049118;28;20233;-72
2024/04/07 10:48:57;;;;;;;;;;;;;;;24.43;37.49;96658.19;5066202;28;19950;-73
2024/04/07 10:51:23;;;;;;;;;;;;;;;24.46;33.25;96654.94;5066661;28;20203;-73
2024/04/07 10:54:05;;;;;;;;;;;;;;;24.41;34.85;96646.19;5066120;28;19935;-73
2024/04/07 10:56:31;;;;;;;;;;;;;;;24.42;36.04;96648.59;5066482;28;20243;-73
2024/04/07 10:58:57;;;;;;;;;;;;;;;24.56;36.15;96645.88;5066218;28;19933;-76
2024/04/07 11:01:24;;;;;;;;;;;;;;;24.77;35.90;96646.19;5066739;28;19955;-73
2024/04/07 11:03:51;;;;;;;;;;;;;;;24.79;32.14;96649.38;5066245;28;20136;-72
2024/04/07 11:06:19;;;;;;;;;;;;;;;24.68;35.32;96643.44;5066273;28;19957;-72
2024/04/07 11:08:45;;;;;;;;;;;;;;;24.70;34.92;96649.31;5031500;28;19950;-72
2024/04/07 11:11:11;;;;;;;;;;;;;;;24.75;34.20;96640.34;5048880;28;20102;-72
2024/04/07 11:13:38;;;;;;;;;;;;;;;24.70;31.90;96637.78;5048842;28;19940;-72
2024/04/07 11:16:04;;;;;;;;;;;;;;;24.88;36.53;96636.00;5048195;28;19960;-73
2024/04/07 11:18:32;;;;;;;;;;;;;;;24.76;34.00;96633.06;5064484;28;19941;-69
2024/04/07 11:20:59;;;;;;;;;;;;;;;24.89;35.53;96637.59;5064487;28;19943;-70
2024/04/07 11:23:25;;;;;;;;;;;;;;;25.08;33.04;96624.78;5064845;28;19944;-70
2024/04/07 11:25:52;;;;;;;;;;;;;;;25.27;34.63;96621.13;5066124;28;20248;-69
2024/04/07 11:28:19;;;;;;;;;;;;;;;25.37;34.65;96610.13;5065982;28;19950;-70
2024/04/07 11:30:48;;;;;;;;;;;;;;;25.46;34.54;96613.63;5065422;28;19958;-69
2024/04/07 11:33:14;;;;;;;;;;;;;;;25.42;33.69;96609.19;5066118;28;19933;-70
2024/04/07 11:35:40;;;;;;;;;;;;;;;25.20;33.56;96610.00;5065372;28;19937;-69
2024/04/07 11:38:06;;;;;;;;;;;;;;;25.12;33.66;96601.59;5065510;28;19971;-75
2024/04/07 11:40:32;;;;;;;;;;;;;;;25.19;32.47;96598.47;5065252;28;20215;-83
2024/04/07 11:42:58;;;;;;;;;;;;;;;25.15;33.99;96594.81;5065275;28;19932;-83
2024/04/07 11:45:27;;;;;;;;;;;;;;;24.97;33.48;96593.13;5065146;28;19929;-83
2024/04/07 11:47:53;;;;;;;;;;;;;;;24.90;33.41;96594.38;5065111;28;19944;-82
2024/04/07 11:50:20;;;;;;;;;;;;;;;24.75;33.81;96591.28;5065049;28;19939;-82
2024/04/07 11:52:45;;;;;;;;;;;;;;;24.60;33.14;96585.19;5065021;28;20216;-82
2024/04/07 11:55:11;;;;;;;;;;;;;;;24.58;34.69;96589.28;5064961;28;19959;-71
2024/04/07 11:57:38;;;;;;;;;;;;;;;24.57;35.60;96587.66;5064874;28;20288;-70
2024/04/07 12:00:04;;;;;;;;;;;;;;;24.73;33.66;96583.53;5064811;28;20232;-70
2024/04/07 12:02:31;;;;;;;;;;;;;;;24.88;33.50;96580.47;5064504;28;19938;-69
2024/04/07 12:04:57;;;;;;;;;;;;;;;25.21;33.43;96574.03;5064319;28;19940;-69
2024/04/07 12:07:23;;;;;;;;;;;;;;;25.44;33.68;96564.03;5064629;28;19934;-70
2024/04/07 12:09:49;;;;;;;;;;;;;;;25.42;32.94;96567.00;5065166;28;20188;-69
2024/04/07 12:12:15;;;;;;;;;;;;;;;25.40;33.04;96565.75;5064601;28;19938;-69
2024/04/07 12:14:41;;;;;;;;;;;;;;;25.37;31.98;96561.78;5064852;28;20226;-69
2024/04/07 12:17:07;;;;;;;;;;;;;;;25.36;33.40;96559.41;5047297;28;19994;-70
2024/04/07 12:19:33;;;;;;;;;;;;;;;25.38;33.63;96554.53;5064992;28;20230;-70
2024/04/07 12:21:59;;;;;;;;;;;;;;;25.48;32.08;96557.72;5064958;28;19932;-70
2024/04/07 12:24:26;;;;;;;;;;;;;;;25.57;33.79;96554.25;5064588;28;19972;-70
2024/04/07 12:26:52;;;;;;;;;;;;;;;25.45;31.79;96552.97;5063683;28;19960;-70
2024/04/07 12:29:19;;;;;;;;;;;;;;;25.39;32.70;96550.72;5065055;28;19940;-70
2024/04/07 12:31:45;;;;;;;;;;;;;;;25.21;33.30;96549.88;5064337;28;19934;-69
2024/04/07 12:34:11;;;;;;;;;;;;;;;25.09;33.28;96545.88;5064781;28;19955;-83
2024/04/07 12:36:37;;;;;;;;;;;;;;;24.89;33.07;96541.03;5064730;28;19958;-76
2024/04/07 12:39:08;;;;;;;;;;;;;;;24.77;34.28;96546.16;5064424;28;19934;-76
2024/04/07 12:41:34;;;;;;;;;;;;;;;24.82;33.57;96541.47;5064749;28;19945;-76
2024/04/07 12:44:00;;;;;;;;;;;;;;;24.88;34.67;96539.44;5064117;28;19931;-76
2024/04/07 12:46:26;;;;;;;;;;;;;;;24.92;34.53;96538.53;5064869;28;19957;-76
2024/04/07 12:48:52;;;;;;;;;;;;;;;25.02;33.81;96531.31;5064065;28;19936;-76